sensor_id;sensor_type;location;lat;lon;timestamp;temperature;humidity
4828;DHT22;2428;48.732;9.148;2023-08-08T00:01:52;13.20;99.90
4828;DHT22;2428;48.732;9.148;2023-08-08T00:04:18;13.20;99.90
4828;DHT22;2428;48.732;9.148;2023-08-08T00:06:44;13.20;99.90
4828;DHT22;2428;48.732;9.148;2023-08-08T00:09:09;13.20;99.90
4828;DHT22;2428;48.732;9.148;2023-08-08T00:11:35;13.20;99.90
4828;DHT22;2428;48.732;9.148;2023-08-08T00:14:00;13.20;99.90
4828;DHT22;2428;48.732;9.148;2023-08-08T00:16:26;13.20;99.90
4828;DHT22;2428;48.732;9.148;2023-08-08T00:18:51;13.20;99.90
4828;DHT22;2428;48.732;9.148;2023-08-08T00:21:19;13.30;99.90
4828;DHT22;2428;48.732;9.148;2023-08-08T00:23:45;13.30;99.90
4828;DHT22;2428;48.732;9.148;2023-08-08T00:26:10;13.40;99.90
4828;DHT22;2428;48.732;9.148;2023-08-08T00:28:36;13.40;99.90
4828;DHT22;2428;48.732;9.148;2023-08-08T00:31:02;13.40;99.90
4828;DHT22;2428;48.732;9.148;2023-08-08T00:33:27;13.50;99.90
4828;DHT22;2428;48.732;9.148;2023-08-08T00:35:53;13.60;99.90
4828;DHT22;2428;48.732;9.148;2023-08-08T00:38:18;13.60;99.90
4828;DHT22;2428;48.732;9.148;2023-08-08T00:40:44;13.60;99.90
4828;DHT22;2428;48.732;9.148;2023-08-08T00:43:10;13.60;99.90
4828;DHT22;2428;48.732;9.148;2023-08-08T00:45:36;13.60;99.90
4828;DHT22;2428;48.732;9.148;2023-08-08T00:48:02;13.60;99.90
4828;DHT22;2428;48.732;9.148;2023-08-08T00:50:28;13.60;99.90
4828;DHT22;2428;48.732;9.148;2023-08-08T00:52:53;13.60;99.90
4828;DHT22;2428;48.732;9.148;2023-08-08T00:55:19;13.50;99.90
4828;DHT22;2428;48.732;9.148;2023-08-08T00:57:45;13.50;99.90
4828;DHT22;2428;48.732;9.148;2023-08-08T01:00:11;13.50;99.90
4828;DHT22;2428;48.732;9.148;2023-08-08T01:02:37;13.50;99.90
4828;DHT22;2428;48.732;9.148;2023-08-08T01:05:04;13.50;99.90
4828;DHT22;2428;48.732;9.148;2023-08-08T01:08:03;13.50;99.90
4828;DHT22;2428;48.732;9.148;2023-08-08T01:10:34;13.50;99.90
4828;DHT22;2428;48.732;9.148;2023-08-08T01:13:05;13.50;99.90
4828;DHT22;2428;48.732;9.148;2023-08-08T01:15:34;13.50;99.90
4828;DHT22;2428;48.732;9.148;2023-08-08T01:18:04;13.50;99.90
4828;DHT22;2428;48.732;9.148;2023-08-08T01:20:32;13.50;99.90
4828;DHT22;2428;48.732;9.148;2023-08-08T01:23:28;13.50;99.90
4828;DHT22;2428;48.732;9.148;2023-08-08T01:25:57;13.50;99.90
4828;DHT22;2428;48.732;9.148;2023-08-08T01:28:23;13.50;99.90
4828;DHT22;2428;48.732;9.148;2023-08-08T01:30:49;13.50;99.90
4828;DHT22;2428;48.732;9.148;2023-08-08T01:33:15;13.50;99.90
4828;DHT22;2428;48.732;9.148;2023-08-08T01:35:45;13.50;99.90
4828;DHT22;2428;48.732;9.148;2023-08-08T01:38:30;13.50;99.90
4828;DHT22;2428;48.732;9.148;2023-08-08T01:40:57;13.50;99.90
4828;DHT22;2428;48.732;9.148;2023-08-08T01:43:24;13.60;99.90
4828;DHT22;2428;48.732;9.148;2023-08-08T01:45:51;13.50;99.90
4828;DHT22;2428;48.732;9.148;2023-08-08T01:48:17;13.60;99.90
4828;DHT22;2428;48.732;9.148;2023-08-08T01:50:43;13.50;99.90
4828;DHT22;2428;48.732;9.148;2023-08-08T01:53:09;13.50;99.90
4828;DHT22;2428;48.732;9.148;2023-08-08T01:55:34;13.50;99.90
4828;DHT22;2428;48.732;9.148;2023-08-08T01:58:00;13.50;99.90
4828;DHT22;2428;48.732;9.148;2023-08-08T02:00:26;13.50;99.90
4828;DHT22;2428;48.732;9.148;2023-08-08T02:02:52;13.50;99.90
4828;DHT22;2428;48.732;9.148;2023-08-08T02:05:17;13.50;99.90
4828;DHT22;2428;48.732;9.148;2023-08-08T02:07:43;13.40;99.90
4828;DHT22;2428;48.732;9.148;2023-08-08T02:10:08;13.40;99.90
4828;DHT22;2428;48.732;9.148;2023-08-08T02:12:34;13.40;99.90
4828;DHT22;2428;48.732;9.148;2023-08-08T02:14:59;13.30;99.90
4828;DHT22;2428;48.732;9.148;2023-08-08T02:17:25;13.40;99.90
4828;DHT22;2428;48.732;9.148;2023-08-08T02:19:52;13.40;99.90
4828;DHT22;2428;48.732;9.148;2023-08-08T02:22:17;13.40;99.90
4828;DHT22;2428;48.732;9.148;2023-08-08T02:24:43;13.40;99.90
4828;DHT22;2428;48.732;9.148;2023-08-08T02:27:12;13.40;99.90
4828;DHT22;2428;48.732;9.148;2023-08-08T02:29:37;13.40;99.90
4828;DHT22;2428;48.732;9.148;2023-08-08T02:32:03;13.40;99.90
4828;DHT22;2428;48.732;9.148;2023-08-08T02:34:29;13.40;99.90
4828;DHT22;2428;48.732;9.148;2023-08-08T02:36:54;13.40;99.90
4828;DHT22;2428;48.732;9.148;2023-08-08T02:39:20;13.40;99.90
4828;DHT22;2428;48.732;9.148;2023-08-08T02:41:45;13.40;99.90
4828;DHT22;2428;48.732;9.148;2023-08-08T02:44:11;13.30;99.90
4828;DHT22;2428;48.732;9.148;2023-08-08T02:46:36;13.30;99.90
4828;DHT22;2428;48.732;9.148;2023-08-08T02:49:04;13.30;99.90
4828;DHT22;2428;48.732;9.148;2023-08-08T02:51:30;13.30;99.90
4828;DHT22;2428;48.732;9.148;2023-08-08T02:53:55;13.30;99.90
4828;DHT22;2428;48.732;9.148;2023-08-08T02:56:21;13.30;99.90
4828;DHT22;2428;48.732;9.148;2023-08-08T02:58:46;13.30;99.90
4828;DHT22;2428;48.732;9.148;2023-08-08T03:01:12;13.30;99.90
4828;DHT22;2428;48.732;9.148;2023-08-08T03:03:41;13.30;99.90
4828;DHT22;2428;48.732;9.148;2023-08-08T03:06:07;13.30;99.90
4828;DHT22;2428;48.732;9.148;2023-08-08T03:08:33;13.20;99.90
4828;DHT22;2428;48.732;9.148;2023-08-08T03:10:58;13.20;99.90
4828;DHT22;2428;48.732;9.148;2023-08-08T03:13:24;13.20;99.90
4828;DHT22;2428;48.732;9.148;2023-08-08T03:15:50;13.10;99.90
4828;DHT22;2428;48.732;9.148;2023-08-08T03:18:15;13.10;99.90
4828;DHT22;2428;48.732;9.148;2023-08-08T03:20:41;13.10;99.90
4828;DHT22;2428;48.732;9.148;2023-08-08T03:23:06;13.10;99.90
4828;DHT22;2428;48.732;9.148;2023-08-08T03:25:32;13.10;99.90
4828;DHT22;2428;48.732;9.148;2023-08-08T03:27:57;13.00;99.90
4828;DHT22;2428;48.732;9.148;2023-08-08T03:30:23;13.00;99.90
4828;DHT22;2428;48.732;9.148;2023-08-08T03:32:49;13.00;99.90
4828;DHT22;2428;48.732;9.148;2023-08-08T03:35:14;13.10;99.90
4828;DHT22;2428;48.732;9.148;2023-08-08T03:37:40;13.00;99.90
4828;DHT22;2428;48.732;9.148;2023-08-08T03:40:07;13.10;99.90
4828;DHT22;2428;48.732;9.148;2023-08-08T03:42:33;13.10;99.90
4828;DHT22;2428;48.732;9.148;2023-08-08T03:44:58;13.10;99.90
4828;DHT22;2428;48.732;9.148;2023-08-08T03:47:24;13.10;99.90
4828;DHT22;2428;48.732;9.148;2023-08-08T03:49:50;13.10;99.90
4828;DHT22;2428;48.732;9.148;2023-08-08T03:52:16;13.20;99.90
4828;DHT22;2428;48.732;9.148;2023-08-08T03:54:42;13.20;99.90
4828;DHT22;2428;48.732;9.148;2023-08-08T03:57:08;13.20;99.90
4828;DHT22;2428;48.732;9.148;2023-08-08T03:59:33;13.20;99.90
4828;DHT22;2428;48.732;9.148;2023-08-08T04:01:59;13.20;99.90
4828;DHT22;2428;48.732;9.148;2023-08-08T04:04:24;13.20;99.90
4828;DHT22;2428;48.732;9.148;2023-08-08T04:06:50;13.20;99.90
4828;DHT22;2428;48.732;9.148;2023-08-08T04:09:15;13.20;99.90
4828;DHT22;2428;48.732;9.148;2023-08-08T04:11:41;13.30;99.90
4828;DHT22;2428;48.732;9.148;2023-08-08T04:14:06;13.30;99.90
4828;DHT22;2428;48.732;9.148;2023-08-08T04:16:32;13.30;99.90
4828;DHT22;2428;48.732;9.148;2023-08-08T04:18:58;13.40;99.90
4828;DHT22;2428;48.732;9.148;2023-08-08T04:21:24;13.40;99.90
4828;DHT22;2428;48.732;9.148;2023-08-08T04:23:52;13.40;99.90
4828;DHT22;2428;48.732;9.148;2023-08-08T04:26:18;13.40;99.90
4828;DHT22;2428;48.732;9.148;2023-08-08T04:28:44;13.40;99.90
4828;DHT22;2428;48.732;9.148;2023-08-08T04:31:09;13.40;99.90
4828;DHT22;2428;48.732;9.148;2023-08-08T04:33:35;13.50;99.90
4828;DHT22;2428;48.732;9.148;2023-08-08T04:36:00;13.50;99.90
4828;DHT22;2428;48.732;9.148;2023-08-08T04:38:26;13.50;99.90
4828;DHT22;2428;48.732;9.148;2023-08-08T04:40:52;13.40;99.90
4828;DHT22;2428;48.732;9.148;2023-08-08T04:43:17;13.40;99.90
4828;DHT22;2428;48.732;9.148;2023-08-08T04:45:43;13.40;99.90
4828;DHT22;2428;48.732;9.148;2023-08-08T04:48:08;13.30;99.90
4828;DHT22;2428;48.732;9.148;2023-08-08T04:50:34;13.30;99.90
4828;DHT22;2428;48.732;9.148;2023-08-08T04:53:00;13.30;99.90
4828;DHT22;2428;48.732;9.148;2023-08-08T04:55:25;13.30;99.90
4828;DHT22;2428;48.732;9.148;2023-08-08T04:57:51;13.30;99.90
4828;DHT22;2428;48.732;9.148;2023-08-08T05:00:16;13.30;99.90
4828;DHT22;2428;48.732;9.148;2023-08-08T05:02:42;13.30;99.90
4828;DHT22;2428;48.732;9.148;2023-08-08T05:05:08;13.30;99.90
4828;DHT22;2428;48.732;9.148;2023-08-08T05:07:34;13.30;99.90
4828;DHT22;2428;48.732;9.148;2023-08-08T05:10:03;13.30;99.90
4828;DHT22;2428;48.732;9.148;2023-08-08T05:12:29;13.40;99.90
4828;DHT22;2428;48.732;9.148;2023-08-08T05:14:54;13.40;99.90
4828;DHT22;2428;48.732;9.148;2023-08-08T05:17:20;13.50;99.90
4828;DHT22;2428;48.732;9.148;2023-08-08T05:19:46;13.40;99.90
4828;DHT22;2428;48.732;9.148;2023-08-08T05:22:12;13.40;99.90
4828;DHT22;2428;48.732;9.148;2023-08-08T05:24:37;13.40;99.90
4828;DHT22;2428;48.732;9.148;2023-08-08T05:27:03;13.40;99.90
4828;DHT22;2428;48.732;9.148;2023-08-08T05:29:29;13.40;99.90
4828;DHT22;2428;48.732;9.148;2023-08-08T05:31:55;13.40;99.90
4828;DHT22;2428;48.732;9.148;2023-08-08T05:34:21;13.40;99.90
4828;DHT22;2428;48.732;9.148;2023-08-08T05:36:47;13.30;99.90
4828;DHT22;2428;48.732;9.148;2023-08-08T05:39:12;13.30;99.90
4828;DHT22;2428;48.732;9.148;2023-08-08T05:41:38;13.20;99.90
4828;DHT22;2428;48.732;9.148;2023-08-08T05:44:03;13.20;99.90
4828;DHT22;2428;48.732;9.148;2023-08-08T05:46:29;13.20;99.90
4828;DHT22;2428;48.732;9.148;2023-08-08T05:48:55;13.20;99.90
4828;DHT22;2428;48.732;9.148;2023-08-08T05:51:20;13.20;99.90
4828;DHT22;2428;48.732;9.148;2023-08-08T05:53:46;13.20;99.90
4828;DHT22;2428;48.732;9.148;2023-08-08T05:56:13;13.20;99.90
4828;DHT22;2428;48.732;9.148;2023-08-08T05:58:38;13.30;99.90
4828;DHT22;2428;48.732;9.148;2023-08-08T06:01:04;13.40;99.90
4828;DHT22;2428;48.732;9.148;2023-08-08T06:03:34;13.40;99.90
4828;DHT22;2428;48.732;9.148;2023-08-08T06:05:59;13.50;99.90
4828;DHT22;2428;48.732;9.148;2023-08-08T06:08:25;13.50;99.90
4828;DHT22;2428;48.732;9.148;2023-08-08T06:10:51;13.60;99.90
4828;DHT22;2428;48.732;9.148;2023-08-08T06:13:16;13.70;99.90
4828;DHT22;2428;48.732;9.148;2023-08-08T06:15:42;13.80;99.90
4828;DHT22;2428;48.732;9.148;2023-08-08T06:18:08;13.80;99.90
4828;DHT22;2428;48.732;9.148;2023-08-08T06:20:33;14.00;99.90
4828;DHT22;2428;48.732;9.148;2023-08-08T06:22:59;14.00;99.90
4828;DHT22;2428;48.732;9.148;2023-08-08T06:25:24;14.00;99.90
4828;DHT22;2428;48.732;9.148;2023-08-08T06:27:50;14.10;99.90
4828;DHT22;2428;48.732;9.148;2023-08-08T06:30:16;14.20;99.90
4828;DHT22;2428;48.732;9.148;2023-08-08T06:32:42;14.20;99.90
4828;DHT22;2428;48.732;9.148;2023-08-08T06:35:08;14.30;99.90
4828;DHT22;2428;48.732;9.148;2023-08-08T06:37:33;14.30;99.90
4828;DHT22;2428;48.732;9.148;2023-08-08T06:39:59;14.40;99.90
4828;DHT22;2428;48.732;9.148;2023-08-08T06:42:25;14.50;99.90
4828;DHT22;2428;48.732;9.148;2023-08-08T06:44:50;14.50;99.90
4828;DHT22;2428;48.732;9.148;2023-08-08T06:47:16;14.50;99.90
4828;DHT22;2428;48.732;9.148;2023-08-08T06:49:41;14.60;99.90
4828;DHT22;2428;48.732;9.148;2023-08-08T06:52:07;14.70;99.90
4828;DHT22;2428;48.732;9.148;2023-08-08T06:54:33;14.70;99.90
4828;DHT22;2428;48.732;9.148;2023-08-08T06:56:59;14.80;99.90
4828;DHT22;2428;48.732;9.148;2023-08-08T06:59:25;14.90;99.90
4828;DHT22;2428;48.732;9.148;2023-08-08T07:01:51;15.00;99.90
4828;DHT22;2428;48.732;9.148;2023-08-08T07:04:17;15.10;99.90
4828;DHT22;2428;48.732;9.148;2023-08-08T07:06:44;15.10;99.90
4828;DHT22;2428;48.732;9.148;2023-08-08T07:09:13;15.20;99.90
4828;DHT22;2428;48.732;9.148;2023-08-08T07:11:40;15.30;99.90
4828;DHT22;2428;48.732;9.148;2023-08-08T07:14:06;15.30;99.90
4828;DHT22;2428;48.732;9.148;2023-08-08T07:16:31;15.40;99.90
4828;DHT22;2428;48.732;9.148;2023-08-08T07:18:57;15.40;99.90
4828;DHT22;2428;48.732;9.148;2023-08-08T07:21:23;15.50;99.90
4828;DHT22;2428;48.732;9.148;2023-08-08T07:23:48;15.50;99.90
4828;DHT22;2428;48.732;9.148;2023-08-08T07:26:14;15.60;99.90
4828;DHT22;2428;48.732;9.148;2023-08-08T07:28:39;15.60;99.90
4828;DHT22;2428;48.732;9.148;2023-08-08T07:31:05;15.70;99.90
4828;DHT22;2428;48.732;9.148;2023-08-08T07:33:31;15.70;99.90
4828;DHT22;2428;48.732;9.148;2023-08-08T07:35:57;15.80;99.90
4828;DHT22;2428;48.732;9.148;2023-08-08T07:38:22;15.90;99.90
4828;DHT22;2428;48.732;9.148;2023-08-08T07:40:48;15.90;99.90
4828;DHT22;2428;48.732;9.148;2023-08-08T07:43:14;16.00;99.90
4828;DHT22;2428;48.732;9.148;2023-08-08T07:45:40;16.10;99.90
4828;DHT22;2428;48.732;9.148;2023-08-08T07:48:05;16.10;99.90
4828;DHT22;2428;48.732;9.148;2023-08-08T07:50:31;16.20;99.90
4828;DHT22;2428;48.732;9.148;2023-08-08T07:52:57;16.30;99.90
4828;DHT22;2428;48.732;9.148;2023-08-08T07:55:22;16.40;99.90
4828;DHT22;2428;48.732;9.148;2023-08-08T07:57:48;16.50;99.90
4828;DHT22;2428;48.732;9.148;2023-08-08T08:00:14;16.50;99.90
4828;DHT22;2428;48.732;9.148;2023-08-08T08:02:41;16.60;99.90
4828;DHT22;2428;48.732;9.148;2023-08-08T08:05:08;16.70;99.90
4828;DHT22;2428;48.732;9.148;2023-08-08T08:07:37;16.70;99.90
4828;DHT22;2428;48.732;9.148;2023-08-08T08:10:03;16.70;99.90
4828;DHT22;2428;48.732;9.148;2023-08-08T08:12:30;16.80;99.90
4828;DHT22;2428;48.732;9.148;2023-08-08T08:14:56;16.80;99.90
4828;DHT22;2428;48.732;9.148;2023-08-08T08:17:21;16.90;99.90
4828;DHT22;2428;48.732;9.148;2023-08-08T08:19:47;17.00;99.90
4828;DHT22;2428;48.732;9.148;2023-08-08T08:22:12;17.00;99.90
4828;DHT22;2428;48.732;9.148;2023-08-08T08:24:38;17.00;99.90
4828;DHT22;2428;48.732;9.148;2023-08-08T08:27:04;17.00;99.90
4828;DHT22;2428;48.732;9.148;2023-08-08T08:29:29;17.00;99.90
4828;DHT22;2428;48.732;9.148;2023-08-08T08:31:56;17.00;99.90
4828;DHT22;2428;48.732;9.148;2023-08-08T08:34:22;17.00;99.90
4828;DHT22;2428;48.732;9.148;2023-08-08T08:36:48;17.10;99.90
4828;DHT22;2428;48.732;9.148;2023-08-08T08:39:13;17.10;99.90
4828;DHT22;2428;48.732;9.148;2023-08-08T08:41:39;17.20;99.90
4828;DHT22;2428;48.732;9.148;2023-08-08T08:44:05;17.20;99.90
4828;DHT22;2428;48.732;9.148;2023-08-08T08:46:35;17.30;99.90
4828;DHT22;2428;48.732;9.148;2023-08-08T08:49:02;17.30;99.90
4828;DHT22;2428;48.732;9.148;2023-08-08T08:51:30;17.20;99.90
4828;DHT22;2428;48.732;9.148;2023-08-08T08:53:58;17.20;99.90
4828;DHT22;2428;48.732;9.148;2023-08-08T08:56:24;17.20;99.90
4828;DHT22;2428;48.732;9.148;2023-08-08T08:58:51;17.30;99.90
4828;DHT22;2428;48.732;9.148;2023-08-08T09:01:16;17.20;99.90
4828;DHT22;2428;48.732;9.148;2023-08-08T09:03:44;17.30;99.90
4828;DHT22;2428;48.732;9.148;2023-08-08T09:06:11;17.40;99.90
4828;DHT22;2428;48.732;9.148;2023-08-08T09:08:37;17.40;99.90
4828;DHT22;2428;48.732;9.148;2023-08-08T09:11:03;17.60;99.90
4828;DHT22;2428;48.732;9.148;2023-08-08T09:13:38;17.60;99.90
4828;DHT22;2428;48.732;9.148;2023-08-08T09:16:08;17.80;99.90
4828;DHT22;2428;48.732;9.148;2023-08-08T09:18:35;17.90;99.90
4828;DHT22;2428;48.732;9.148;2023-08-08T09:21:04;17.90;99.90
4828;DHT22;2428;48.732;9.148;2023-08-08T09:23:29;18.00;99.90
4828;DHT22;2428;48.732;9.148;2023-08-08T09:25:55;18.00;99.90
4828;DHT22;2428;48.732;9.148;2023-08-08T09:28:21;18.10;99.90
4828;DHT22;2428;48.732;9.148;2023-08-08T09:30:47;18.20;99.90
4828;DHT22;2428;48.732;9.148;2023-08-08T09:33:12;18.20;99.90
4828;DHT22;2428;48.732;9.148;2023-08-08T09:35:38;18.20;99.90
4828;DHT22;2428;48.732;9.148;2023-08-08T09:38:04;18.20;99.90
4828;DHT22;2428;48.732;9.148;2023-08-08T09:40:30;18.20;99.90
4828;DHT22;2428;48.732;9.148;2023-08-08T09:42:56;18.20;99.90
4828;DHT22;2428;48.732;9.148;2023-08-08T09:45:23;18.20;99.90
4828;DHT22;2428;48.732;9.148;2023-08-08T09:47:52;18.40;99.90
4828;DHT22;2428;48.732;9.148;2023-08-08T09:50:18;18.40;99.90
4828;DHT22;2428;48.732;9.148;2023-08-08T09:52:45;18.40;99.90
4828;DHT22;2428;48.732;9.148;2023-08-08T09:55:11;18.50;99.90
4828;DHT22;2428;48.732;9.148;2023-08-08T09:57:39;18.60;99.90
4828;DHT22;2428;48.732;9.148;2023-08-08T10:00:06;18.70;99.90
4828;DHT22;2428;48.732;9.148;2023-08-08T10:02:36;18.90;99.90
4828;DHT22;2428;48.732;9.148;2023-08-08T10:05:04;19.00;99.90
4828;DHT22;2428;48.732;9.148;2023-08-08T10:07:30;18.70;99.90
4828;DHT22;2428;48.732;9.148;2023-08-08T10:09:56;18.60;99.90
4828;DHT22;2428;48.732;9.148;2023-08-08T10:12:24;18.50;99.90
4828;DHT22;2428;48.732;9.148;2023-08-08T10:14:51;18.60;99.90
4828;DHT22;2428;48.732;9.148;2023-08-08T10:17:18;18.70;99.90
4828;DHT22;2428;48.732;9.148;2023-08-08T10:19:56;18.80;99.90
4828;DHT22;2428;48.732;9.148;2023-08-08T10:22:24;18.80;99.90
4828;DHT22;2428;48.732;9.148;2023-08-08T10:24:53;18.80;99.90
4828;DHT22;2428;48.732;9.148;2023-08-08T10:27:34;18.80;99.90
4828;DHT22;2428;48.732;9.148;2023-08-08T10:30:08;19.40;99.90
4828;DHT22;2428;48.732;9.148;2023-08-08T10:32:43;19.70;99.90
4828;DHT22;2428;48.732;9.148;2023-08-08T10:35:11;19.70;99.90
4828;DHT22;2428;48.732;9.148;2023-08-08T10:37:37;19.80;99.90
4828;DHT22;2428;48.732;9.148;2023-08-08T10:40:05;20.20;99.90
4828;DHT22;2428;48.732;9.148;2023-08-08T10:42:31;20.80;99.90
4828;DHT22;2428;48.732;9.148;2023-08-08T10:44:59;20.80;99.90
4828;DHT22;2428;48.732;9.148;2023-08-08T10:47:26;20.90;99.90
4828;DHT22;2428;48.732;9.148;2023-08-08T10:50:12;20.80;99.90
4828;DHT22;2428;48.732;9.148;2023-08-08T10:52:56;21.20;99.90
4828;DHT22;2428;48.732;9.148;2023-08-08T10:55:27;21.30;99.90
4828;DHT22;2428;48.732;9.148;2023-08-08T10:58:13;21.60;99.90
4828;DHT22;2428;48.732;9.148;2023-08-08T11:00:41;23.00;99.90
4828;DHT22;2428;48.732;9.148;2023-08-08T11:03:07;22.50;99.90
4828;DHT22;2428;48.732;9.148;2023-08-08T11:05:36;22.70;99.00
4828;DHT22;2428;48.732;9.148;2023-08-08T11:08:03;21.80;98.00
4828;DHT22;2428;48.732;9.148;2023-08-08T11:10:34;21.90;99.90
4828;DHT22;2428;48.732;9.148;2023-08-08T11:13:02;22.60;98.30
4828;DHT22;2428;48.732;9.148;2023-08-08T11:15:28;22.00;96.50
4828;DHT22;2428;48.732;9.148;2023-08-08T11:17:58;21.40;98.20
4828;DHT22;2428;48.732;9.148;2023-08-08T11:20:24;22.10;99.10
4828;DHT22;2428;48.732;9.148;2023-08-08T11:22:51;22.10;98.80
4828;DHT22;2428;48.732;9.148;2023-08-08T11:25:17;22.10;97.90
4828;DHT22;2428;48.732;9.148;2023-08-08T11:27:51;23.30;98.50
4828;DHT22;2428;48.732;9.148;2023-08-08T11:30:17;24.20;93.60
4828;DHT22;2428;48.732;9.148;2023-08-08T11:32:43;23.40;92.80
4828;DHT22;2428;48.732;9.148;2023-08-08T11:35:09;22.60;93.30
4828;DHT22;2428;48.732;9.148;2023-08-08T11:37:35;22.10;95.40
4828;DHT22;2428;48.732;9.148;2023-08-08T11:40:01;21.70;95.70
4828;DHT22;2428;48.732;9.148;2023-08-08T11:42:27;21.80;95.10
4828;DHT22;2428;48.732;9.148;2023-08-08T11:44:53;21.90;95.20
4828;DHT22;2428;48.732;9.148;2023-08-08T11:47:24;21.90;95.10
4828;DHT22;2428;48.732;9.148;2023-08-08T11:49:51;21.70;95.60
4828;DHT22;2428;48.732;9.148;2023-08-08T11:52:18;21.40;97.30
4828;DHT22;2428;48.732;9.148;2023-08-08T11:54:44;21.20;96.80
4828;DHT22;2428;48.732;9.148;2023-08-08T11:57:10;21.20;96.30
4828;DHT22;2428;48.732;9.148;2023-08-08T11:59:35;21.30;93.40
4828;DHT22;2428;48.732;9.148;2023-08-08T12:02:01;21.30;94.30
4828;DHT22;2428;48.732;9.148;2023-08-08T12:04:27;21.80;93.30
4828;DHT22;2428;48.732;9.148;2023-08-08T12:07:01;22.40;94.80
4828;DHT22;2428;48.732;9.148;2023-08-08T12:09:33;22.80;93.70
4828;DHT22;2428;48.732;9.148;2023-08-08T12:12:00;22.20;92.40
4828;DHT22;2428;48.732;9.148;2023-08-08T12:14:25;21.60;93.60
4828;DHT22;2428;48.732;9.148;2023-08-08T12:16:51;21.10;94.70
4828;DHT22;2428;48.732;9.148;2023-08-08T12:19:23;21.00;96.80
4828;DHT22;2428;48.732;9.148;2023-08-08T12:21:48;21.30;97.00
4828;DHT22;2428;48.732;9.148;2023-08-08T12:24:14;21.70;94.50
4828;DHT22;2428;48.732;9.148;2023-08-08T12:26:39;21.80;94.20
4828;DHT22;2428;48.732;9.148;2023-08-08T12:29:05;21.50;93.90
4828;DHT22;2428;48.732;9.148;2023-08-08T12:31:32;21.00;95.40
4828;DHT22;2428;48.732;9.148;2023-08-08T12:33:57;20.80;96.30
4828;DHT22;2428;48.732;9.148;2023-08-08T12:36:23;20.80;97.00
4828;DHT22;2428;48.732;9.148;2023-08-08T12:38:48;21.00;98.30
4828;DHT22;2428;48.732;9.148;2023-08-08T12:41:14;21.30;97.90
4828;DHT22;2428;48.732;9.148;2023-08-08T12:43:40;21.40;98.10
4828;DHT22;2428;48.732;9.148;2023-08-08T12:46:05;21.50;98.60
4828;DHT22;2428;48.732;9.148;2023-08-08T12:48:31;21.50;98.30
4828;DHT22;2428;48.732;9.148;2023-08-08T12:50:56;21.40;98.20
4828;DHT22;2428;48.732;9.148;2023-08-08T12:53:22;21.50;99.90
4828;DHT22;2428;48.732;9.148;2023-08-08T12:55:47;21.40;99.50
4828;DHT22;2428;48.732;9.148;2023-08-08T12:58:13;21.30;99.60
4828;DHT22;2428;48.732;9.148;2023-08-08T13:00:39;21.50;98.60
4828;DHT22;2428;48.732;9.148;2023-08-08T13:03:04;21.80;98.30
4828;DHT22;2428;48.732;9.148;2023-08-08T13:05:30;21.60;98.70
4828;DHT22;2428;48.732;9.148;2023-08-08T13:07:56;21.60;99.40
4828;DHT22;2428;48.732;9.148;2023-08-08T13:10:21;21.40;98.60
4828;DHT22;2428;48.732;9.148;2023-08-08T13:12:48;21.20;98.50
4828;DHT22;2428;48.732;9.148;2023-08-08T13:15:13;20.80;97.30
4828;DHT22;2428;48.732;9.148;2023-08-08T13:17:39;20.40;98.40
4828;DHT22;2428;48.732;9.148;2023-08-08T13:20:05;20.30;99.50
4828;DHT22;2428;48.732;9.148;2023-08-08T13:22:33;20.00;99.90
4828;DHT22;2428;48.732;9.148;2023-08-08T13:24:58;19.90;99.90
4828;DHT22;2428;48.732;9.148;2023-08-08T13:27:24;19.90;99.90
4828;DHT22;2428;48.732;9.148;2023-08-08T13:29:49;19.80;99.90
4828;DHT22;2428;48.732;9.148;2023-08-08T13:32:15;19.90;99.90
4828;DHT22;2428;48.732;9.148;2023-08-08T13:34:40;20.20;99.90
4828;DHT22;2428;48.732;9.148;2023-08-08T13:37:06;20.70;99.90
4828;DHT22;2428;48.732;9.148;2023-08-08T13:39:32;21.10;99.90
4828;DHT22;2428;48.732;9.148;2023-08-08T13:41:57;21.20;99.90
4828;DHT22;2428;48.732;9.148;2023-08-08T13:44:23;21.20;99.90
4828;DHT22;2428;48.732;9.148;2023-08-08T13:46:49;21.30;99.90
4828;DHT22;2428;48.732;9.148;2023-08-08T13:49:14;21.40;99.90
4828;DHT22;2428;48.732;9.148;2023-08-08T13:51:41;21.40;99.90
4828;DHT22;2428;48.732;9.148;2023-08-08T13:54:06;21.50;99.90
4828;DHT22;2428;48.732;9.148;2023-08-08T13:56:32;21.70;99.90
4828;DHT22;2428;48.732;9.148;2023-08-08T13:58:57;21.70;99.90
4828;DHT22;2428;48.732;9.148;2023-08-08T14:01:23;21.70;99.90
4828;DHT22;2428;48.732;9.148;2023-08-08T14:03:48;21.80;99.90
4828;DHT22;2428;48.732;9.148;2023-08-08T14:06:14;21.90;99.90
4828;DHT22;2428;48.732;9.148;2023-08-08T14:08:40;22.00;99.90
4828;DHT22;2428;48.732;9.148;2023-08-08T14:11:05;22.10;99.90
4828;DHT22;2428;48.732;9.148;2023-08-08T14:13:31;22.10;98.90
4828;DHT22;2428;48.732;9.148;2023-08-08T14:15:56;21.90;99.30
4828;DHT22;2428;48.732;9.148;2023-08-08T14:18:22;21.70;99.60
4828;DHT22;2428;48.732;9.148;2023-08-08T14:20:48;21.30;99.40
4828;DHT22;2428;48.732;9.148;2023-08-08T14:23:14;21.20;99.90
4828;DHT22;2428;48.732;9.148;2023-08-08T14:25:41;20.90;99.70
4828;DHT22;2428;48.732;9.148;2023-08-08T14:28:07;20.70;99.90
4828;DHT22;2428;48.732;9.148;2023-08-08T14:30:32;20.50;99.90
4828;DHT22;2428;48.732;9.148;2023-08-08T14:32:58;20.50;99.90
4828;DHT22;2428;48.732;9.148;2023-08-08T14:35:23;20.50;99.90
4828;DHT22;2428;48.732;9.148;2023-08-08T14:37:49;20.30;99.90
4828;DHT22;2428;48.732;9.148;2023-08-08T14:40:15;20.20;99.90
4828;DHT22;2428;48.732;9.148;2023-08-08T14:42:40;20.10;99.90
4828;DHT22;2428;48.732;9.148;2023-08-08T14:45:06;20.10;99.90
4828;DHT22;2428;48.732;9.148;2023-08-08T14:47:32;20.00;99.90
4828;DHT22;2428;48.732;9.148;2023-08-08T14:49:58;20.10;99.90
4828;DHT22;2428;48.732;9.148;2023-08-08T14:52:23;20.10;99.90
4828;DHT22;2428;48.732;9.148;2023-08-08T14:54:51;20.30;99.90
4828;DHT22;2428;48.732;9.148;2023-08-08T14:57:16;20.40;99.90
4828;DHT22;2428;48.732;9.148;2023-08-08T14:59:42;20.50;99.90
4828;DHT22;2428;48.732;9.148;2023-08-08T15:02:08;20.50;99.90
4828;DHT22;2428;48.732;9.148;2023-08-08T15:04:33;20.40;99.90
4828;DHT22;2428;48.732;9.148;2023-08-08T15:06:59;20.20;99.90
4828;DHT22;2428;48.732;9.148;2023-08-08T15:09:26;20.00;99.90
4828;DHT22;2428;48.732;9.148;2023-08-08T15:11:51;19.90;99.90
4828;DHT22;2428;48.732;9.148;2023-08-08T15:14:17;19.80;99.90
4828;DHT22;2428;48.732;9.148;2023-08-08T15:16:49;19.70;99.90
4828;DHT22;2428;48.732;9.148;2023-08-08T15:19:14;19.60;99.90
4828;DHT22;2428;48.732;9.148;2023-08-08T15:21:40;19.60;99.90
4828;DHT22;2428;48.732;9.148;2023-08-08T15:24:06;19.60;99.90
4828;DHT22;2428;48.732;9.148;2023-08-08T15:26:32;19.80;99.90
4828;DHT22;2428;48.732;9.148;2023-08-08T15:28:57;20.10;99.90
4828;DHT22;2428;48.732;9.148;2023-08-08T15:31:23;20.30;99.90
4828;DHT22;2428;48.732;9.148;2023-08-08T15:33:48;20.60;99.90
4828;DHT22;2428;48.732;9.148;2023-08-08T15:36:14;20.70;99.90
4828;DHT22;2428;48.732;9.148;2023-08-08T15:38:40;20.50;99.90
4828;DHT22;2428;48.732;9.148;2023-08-08T15:41:06;20.30;99.90
4828;DHT22;2428;48.732;9.148;2023-08-08T15:43:32;20.20;99.90
4828;DHT22;2428;48.732;9.148;2023-08-08T15:45:57;19.90;99.90
4828;DHT22;2428;48.732;9.148;2023-08-08T15:48:23;19.90;99.90
4828;DHT22;2428;48.732;9.148;2023-08-08T15:50:48;19.90;99.90
4828;DHT22;2428;48.732;9.148;2023-08-08T15:53:14;19.70;99.90
4828;DHT22;2428;48.732;9.148;2023-08-08T15:55:40;19.60;99.90
4828;DHT22;2428;48.732;9.148;2023-08-08T15:58:05;19.60;99.90